sensor_id;sensor_type;location;lat;lon;timestamp;P1;durP1;ratioP1;P2;durP2;ratioP2
42802;SDS011;28447;48.682;9.022;2023-06-01T04:00:17;12.97;;;6.77;;
42802;SDS011;28447;48.682;9.022;2023-06-01T04:02:54;12.03;;;7.47;;
42802;SDS011;28447;48.682;9.022;2023-06-01T04:05:22;12.50;;;7.10;;
42802;SDS011;28447;48.682;9.022;2023-06-01T04:07:50;13.67;;;6.90;;
42802;SDS011;28447;48.682;9.022;2023-06-01T04:10:16;13.83;;;6.80;;
42802;SDS011;28447;48.682;9.022;2023-06-01T04:12:43;10.03;;;6.37;;
42802;SDS011;28447;48.682;9.022;2023-06-01T04:15:09;10.10;;;7.20;;
42802;SDS011;28447;48.682;9.022;2023-06-01T04:17:39;12.57;;;6.47;;
42802;SDS011;28447;48.682;9.022;2023-06-01T04:20:07;8.70;;;6.03;;
42802;SDS011;28447;48.682;9.022;2023-06-01T04:22:35;9.50;;;7.27;;
42802;SDS011;28447;48.682;9.022;2023-06-01T04:25:03;9.40;;;6.50;;
42802;SDS011;28447;48.682;9.022;2023-06-01T04:27:30;10.20;;;6.80;;
42802;SDS011;28447;48.682;9.022;2023-06-01T04:29:56;9.00;;;6.10;;
42802;SDS011;28447;48.682;9.022;2023-06-01T04:32:24;10.03;;;6.47;;
42802;SDS011;28447;48.682;9.022;2023-06-01T04:34:52;8.57;;;5.70;;
42802;SDS011;28447;48.682;9.022;2023-06-01T04:37:18;9.80;;;7.40;;
42802;SDS011;28447;48.682;9.022;2023-06-01T04:39:45;14.37;;;7.90;;
42802;SDS011;28447;48.682;9.022;2023-06-01T04:42:15;9.30;;;6.27;;
42802;SDS011;28447;48.682;9.022;2023-06-01T04:44:42;12.60;;;6.70;;
42802;SDS011;28447;48.682;9.022;2023-06-01T04:47:08;9.40;;;6.70;;
42802;SDS011;28447;48.682;9.022;2023-06-01T04:49:34;6.70;;;5.63;;
42802;SDS011;28447;48.682;9.022;2023-06-01T04:52:02;9.50;;;6.27;;
42802;SDS011;28447;48.682;9.022;2023-06-01T04:54:29;15.33;;;7.03;;
42802;SDS011;28447;48.682;9.022;2023-06-01T04:56:55;9.50;;;6.50;;
42802;SDS011;28447;48.682;9.022;2023-06-01T04:59:20;9.73;;;6.57;;
42802;SDS011;28447;48.682;9.022;2023-06-01T05:01:46;11.60;;;7.00;;
42802;SDS011;28447;48.682;9.022;2023-06-01T05:04:12;9.63;;;6.73;;
42802;SDS011;28447;48.682;9.022;2023-06-01T05:06:37;10.77;;;7.07;;
42802;SDS011;28447;48.682;9.022;2023-06-01T05:09:04;14.60;;;7.33;;
42802;SDS011;28447;48.682;9.022;2023-06-01T05:11:30;8.37;;;6.43;;
42802;SDS011;28447;48.682;9.022;2023-06-01T05:13:55;11.33;;;5.70;;
42802;SDS011;28447;48.682;9.022;2023-06-01T05:16:26;11.20;;;6.13;;
42802;SDS011;28447;48.682;9.022;2023-06-01T05:18:52;10.93;;;5.33;;
42802;SDS011;28447;48.682;9.022;2023-06-01T05:21:18;8.10;;;5.57;;
42802;SDS011;28447;48.682;9.022;2023-06-01T05:23:44;11.60;;;6.53;;
42802;SDS011;28447;48.682;9.022;2023-06-01T05:26:09;9.53;;;6.43;;
42802;SDS011;28447;48.682;9.022;2023-06-01T05:28:35;8.00;;;5.93;;
42802;SDS011;28447;48.682;9.022;2023-06-01T05:31:01;15.33;;;7.10;;
42802;SDS011;28447;48.682;9.022;2023-06-01T05:33:27;9.30;;;6.97;;
42802;SDS011;28447;48.682;9.022;2023-06-01T05:35:53;8.90;;;6.50;;
42802;SDS011;28447;48.682;9.022;2023-06-01T05:38:19;10.17;;;7.27;;
42802;SDS011;28447;48.682;9.022;2023-06-01T05:40:45;11.20;;;7.53;;
42802;SDS011;28447;48.682;9.022;2023-06-01T05:43:11;11.40;;;7.60;;
42802;SDS011;28447;48.682;9.022;2023-06-01T05:45:36;10.50;;;6.77;;
42802;SDS011;28447;48.682;9.022;2023-06-01T05:48:02;14.80;;;6.80;;
42802;SDS011;28447;48.682;9.022;2023-06-01T05:50:28;15.40;;;7.20;;
42802;SDS011;28447;48.682;9.022;2023-06-01T05:52:54;15.63;;;6.87;;
42802;SDS011;28447;48.682;9.022;2023-06-01T05:55:19;10.93;;;6.93;;
42802;SDS011;28447;48.682;9.022;2023-06-01T05:57:45;10.70;;;7.07;;
42802;SDS011;28447;48.682;9.022;2023-06-01T06:00:11;7.73;;;5.60;;
42802;SDS011;28447;48.682;9.022;2023-06-01T06:02:39;9.03;;;5.70;;
42802;SDS011;28447;48.682;9.022;2023-06-01T06:05:07;10.73;;;6.23;;
42802;SDS011;28447;48.682;9.022;2023-06-01T06:07:34;10.50;;;5.80;;
42802;SDS011;28447;48.682;9.022;2023-06-01T06:10:00;9.77;;;6.00;;
42802;SDS011;28447;48.682;9.022;2023-06-01T06:12:26;13.13;;;5.90;;
42802;SDS011;28447;48.682;9.022;2023-06-01T06:14:52;10.07;;;5.57;;
42802;SDS011;28447;48.682;9.022;2023-06-01T06:17:18;10.07;;;6.07;;
42802;SDS011;28447;48.682;9.022;2023-06-01T06:19:44;11.70;;;6.20;;
42802;SDS011;28447;48.682;9.022;2023-06-01T06:22:12;12.97;;;6.00;;
42802;SDS011;28447;48.682;9.022;2023-06-01T06:24:38;12.20;;;6.07;;
42802;SDS011;28447;48.682;9.022;2023-06-01T06:27:04;11.47;;;6.70;;
42802;SDS011;28447;48.682;9.022;2023-06-01T06:29:31;9.80;;;6.17;;
42802;SDS011;28447;48.682;9.022;2023-06-01T06:31:57;9.30;;;5.40;;
42802;SDS011;28447;48.682;9.022;2023-06-01T06:34:23;8.57;;;5.00;;
42802;SDS011;28447;48.682;9.022;2023-06-01T06:36:49;12.70;;;5.23;;
42802;SDS011;28447;48.682;9.022;2023-06-01T06:39:14;7.27;;;5.27;;
42802;SDS011;28447;48.682;9.022;2023-06-01T06:41:41;7.90;;;6.33;;
42802;SDS011;28447;48.682;9.022;2023-06-01T06:44:07;12.50;;;7.73;;
42802;SDS011;28447;48.682;9.022;2023-06-01T06:46:32;37.63;;;19.40;;
42802;SDS011;28447;48.682;9.022;2023-06-01T06:48:58;6.60;;;5.17;;
42802;SDS011;28447;48.682;9.022;2023-06-01T06:51:24;10.10;;;5.43;;
42802;SDS011;28447;48.682;9.022;2023-06-01T06:53:50;7.97;;;5.27;;
42802;SDS011;28447;48.682;9.022;2023-06-01T06:56:15;8.83;;;5.23;;
42802;SDS011;28447;48.682;9.022;2023-06-01T06:58:41;9.00;;;4.90;;
42802;SDS011;28447;48.682;9.022;2023-06-01T07:01:08;9.40;;;5.30;;
42802;SDS011;28447;48.682;9.022;2023-06-01T07:03:34;11.17;;;5.60;;
42802;SDS011;28447;48.682;9.022;2023-06-01T07:05:59;5.93;;;4.90;;
42802;SDS011;28447;48.682;9.022;2023-06-01T07:08:25;6.60;;;4.97;;
42802;SDS011;28447;48.682;9.022;2023-06-01T07:10:52;11.80;;;5.37;;
42802;SDS011;28447;48.682;9.022;2023-06-01T07:13:18;9.03;;;5.93;;
42802;SDS011;28447;48.682;9.022;2023-06-01T07:15:44;8.10;;;4.83;;
42802;SDS011;28447;48.682;9.022;2023-06-01T07:18:10;7.20;;;5.17;;
42802;SDS011;28447;48.682;9.022;2023-06-01T07:20:36;8.30;;;5.03;;
42802;SDS011;28447;48.682;9.022;2023-06-01T07:23:01;6.90;;;5.17;;
42802;SDS011;28447;48.682;9.022;2023-06-01T07:25:27;9.10;;;5.30;;
42802;SDS011;28447;48.682;9.022;2023-06-01T07:27:53;7.97;;;5.27;;
42802;SDS011;28447;48.682;9.022;2023-06-01T07:30:21;10.00;;;5.53;;
42802;SDS011;28447;48.682;9.022;2023-06-01T07:32:47;7.43;;;5.37;;
42802;SDS011;28447;48.682;9.022;2023-06-01T07:35:13;7.73;;;5.43;;
42802;SDS011;28447;48.682;9.022;2023-06-01T07:37:39;15.27;;;5.97;;
42802;SDS011;28447;48.682;9.022;2023-06-01T07:40:06;11.87;;;5.80;;
42802;SDS011;28447;48.682;9.022;2023-06-01T07:42:32;12.13;;;5.27;;
42802;SDS011;28447;48.682;9.022;2023-06-01T07:44:58;6.47;;;4.80;;
42802;SDS011;28447;48.682;9.022;2023-06-01T07:47:24;7.03;;;5.00;;
42802;SDS011;28447;48.682;9.022;2023-06-01T07:49:50;7.30;;;5.60;;
42802;SDS011;28447;48.682;9.022;2023-06-01T07:52:16;6.83;;;5.20;;
42802;SDS011;28447;48.682;9.022;2023-06-01T07:54:42;9.48;;;5.40;;
42802;SDS011;28447;48.682;9.022;2023-06-01T07:57:08;7.97;;;6.32;;
42802;SDS011;28447;48.682;9.022;2023-06-01T07:59:34;7.18;;;5.20;;
42802;SDS011;28447;48.682;9.022;2023-06-01T08:02:00;8.15;;;5.63;;
42802;SDS011;28447;48.682;9.022;2023-06-01T08:04:26;6.38;;;5.03;;
42802;SDS011;28447;48.682;9.022;2023-06-01T08:06:52;7.18;;;5.38;;
42802;SDS011;28447;48.682;9.022;2023-06-01T08:09:19;6.43;;;5.20;;
42802;SDS011;28447;48.682;9.022;2023-06-01T08:11:45;7.95;;;5.50;;
42802;SDS011;28447;48.682;9.022;2023-06-01T08:14:11;6.68;;;5.45;;
42802;SDS011;28447;48.682;9.022;2023-06-01T08:16:36;9.27;;;5.60;;
42802;SDS011;28447;48.682;9.022;2023-06-01T08:19:02;8.13;;;5.90;;
42802;SDS011;28447;48.682;9.022;2023-06-01T08:21:28;7.85;;;5.82;;
42802;SDS011;28447;48.682;9.022;2023-06-01T08:23:54;6.95;;;5.97;;
42802;SDS011;28447;48.682;9.022;2023-06-01T08:26:20;7.97;;;6.13;;
42802;SDS011;28447;48.682;9.022;2023-06-01T08:28:46;9.97;;;6.20;;
42802;SDS011;28447;48.682;9.022;2023-06-01T08:31:22;10.52;;;5.60;;
42802;SDS011;28447;48.682;9.022;2023-06-01T08:33:49;7.60;;;5.97;;
42802;SDS011;28447;48.682;9.022;2023-06-01T08:36:16;9.48;;;6.15;;
42802;SDS011;28447;48.682;9.022;2023-06-01T08:38:42;13.20;;;6.93;;
42802;SDS011;28447;48.682;9.022;2023-06-01T08:41:11;9.05;;;6.25;;
42802;SDS011;28447;48.682;9.022;2023-06-01T08:43:52;6.70;;;6.00;;
42802;SDS011;28447;48.682;9.022;2023-06-01T08:46:22;10.57;;;6.20;;
42802;SDS011;28447;48.682;9.022;2023-06-01T08:48:52;8.13;;;6.00;;
42802;SDS011;28447;48.682;9.022;2023-06-01T08:51:20;14.18;;;6.70;;
42802;SDS011;28447;48.682;9.022;2023-06-01T08:53:47;6.70;;;5.75;;
42802;SDS011;28447;48.682;9.022;2023-06-01T08:56:14;10.63;;;6.43;;
42802;SDS011;28447;48.682;9.022;2023-06-01T08:58:40;7.40;;;6.32;;
42802;SDS011;28447;48.682;9.022;2023-06-01T09:01:08;10.05;;;5.80;;
42802;SDS011;28447;48.682;9.022;2023-06-01T09:03:34;9.27;;;6.20;;
42802;SDS011;28447;48.682;9.022;2023-06-01T09:06:00;7.82;;;5.50;;
42802;SDS011;28447;48.682;9.022;2023-06-01T09:08:26;9.27;;;6.32;;
42802;SDS011;28447;48.682;9.022;2023-06-01T09:10:52;7.65;;;6.75;;
42802;SDS011;28447;48.682;9.022;2023-06-01T09:13:30;9.60;;;6.68;;
42802;SDS011;28447;48.682;9.022;2023-06-01T09:15:57;7.55;;;6.00;;
42802;SDS011;28447;48.682;9.022;2023-06-01T09:18:23;8.80;;;6.22;;
42802;SDS011;28447;48.682;9.022;2023-06-01T09:20:48;7.18;;;5.93;;
42802;SDS011;28447;48.682;9.022;2023-06-01T09:23:23;7.88;;;6.13;;
42802;SDS011;28447;48.682;9.022;2023-06-01T09:26:03;7.00;;;6.20;;
42802;SDS011;28447;48.682;9.022;2023-06-01T09:34:09;7.03;;;6.07;;
42802;SDS011;28447;48.682;9.022;2023-06-01T09:36:40;7.57;;;6.22;;
42802;SDS011;28447;48.682;9.022;2023-06-01T09:39:07;10.05;;;5.82;;
42802;SDS011;28447;48.682;9.022;2023-06-01T09:44:21;6.50;;;5.78;;
42802;SDS011;28447;48.682;9.022;2023-06-01T09:46:55;13.80;;;6.93;;
42802;SDS011;28447;48.682;9.022;2023-06-01T09:49:29;6.60;;;5.97;;
42802;SDS011;28447;48.682;9.022;2023-06-01T09:54:40;6.68;;;5.97;;
42802;SDS011;28447;48.682;9.022;2023-06-01T09:57:10;9.10;;;6.22;;
42802;SDS011;28447;48.682;9.022;2023-06-01T09:59:40;9.50;;;6.30;;
42802;SDS011;28447;48.682;9.022;2023-06-01T10:02:09;7.85;;;6.75;;
42802;SDS011;28447;48.682;9.022;2023-06-01T10:04:56;8.05;;;7.25;;
42802;SDS011;28447;48.682;9.022;2023-06-01T10:07:24;7.82;;;6.00;;
42802;SDS011;28447;48.682;9.022;2023-06-01T10:09:56;10.02;;;6.43;;
42802;SDS011;28447;48.682;9.022;2023-06-01T10:12:24;6.88;;;6.25;;
42802;SDS011;28447;48.682;9.022;2023-06-01T10:14:50;10.38;;;6.50;;
42802;SDS011;28447;48.682;9.022;2023-06-01T10:17:20;10.57;;;6.30;;
42802;SDS011;28447;48.682;9.022;2023-06-01T10:19:45;7.82;;;5.95;;
42802;SDS011;28447;48.682;9.022;2023-06-01T10:22:12;8.13;;;5.72;;
42802;SDS011;28447;48.682;9.022;2023-06-01T10:24:38;6.82;;;5.80;;
42802;SDS011;28447;48.682;9.022;2023-06-01T10:29:39;7.30;;;6.30;;
42802;SDS011;28447;48.682;9.022;2023-06-01T10:32:40;9.00;;;6.82;;
42802;SDS011;28447;48.682;9.022;2023-06-01T10:40:35;7.43;;;6.35;;
42802;SDS011;28447;48.682;9.022;2023-06-01T10:43:02;7.97;;;6.55;;
42802;SDS011;28447;48.682;9.022;2023-06-01T10:48:03;6.25;;;5.60;;
42802;SDS011;28447;48.682;9.022;2023-06-01T10:50:31;6.65;;;6.03;;
42802;SDS011;28447;48.682;9.022;2023-06-01T10:52:56;6.03;;;5.35;;
42802;SDS011;28447;48.682;9.022;2023-06-01T10:56:35;6.47;;;5.85;;
42802;SDS011;28447;48.682;9.022;2023-06-01T11:01:39;9.13;;;5.88;;
42802;SDS011;28447;48.682;9.022;2023-06-01T11:04:06;9.50;;;6.32;;
42802;SDS011;28447;48.682;9.022;2023-06-01T11:06:33;7.40;;;6.25;;
42802;SDS011;28447;48.682;9.022;2023-06-01T11:09:05;8.18;;;6.28;;
42802;SDS011;28447;48.682;9.022;2023-06-01T11:14:20;8.43;;;6.28;;
42802;SDS011;28447;48.682;9.022;2023-06-01T11:16:54;6.68;;;5.97;;
42802;SDS011;28447;48.682;9.022;2023-06-01T11:19:20;7.78;;;6.15;;
42802;SDS011;28447;48.682;9.022;2023-06-01T11:21:51;6.50;;;5.63;;
42802;SDS011;28447;48.682;9.022;2023-06-01T11:24:35;9.18;;;6.30;;
42802;SDS011;28447;48.682;9.022;2023-06-01T11:27:05;7.05;;;5.88;;
42802;SDS011;28447;48.682;9.022;2023-06-01T11:29:32;7.95;;;5.82;;
42802;SDS011;28447;48.682;9.022;2023-06-01T11:32:00;8.15;;;6.40;;
42802;SDS011;28447;48.682;9.022;2023-06-01T11:37:04;7.85;;;5.90;;
42802;SDS011;28447;48.682;9.022;2023-06-01T11:39:31;7.60;;;6.18;;
42802;SDS011;28447;48.682;9.022;2023-06-01T11:42:04;6.35;;;5.75;;
42802;SDS011;28447;48.682;9.022;2023-06-01T11:44:35;6.30;;;5.70;;
42802;SDS011;28447;48.682;9.022;2023-06-01T11:47:02;8.07;;;5.47;;
42802;SDS011;28447;48.682;9.022;2023-06-01T11:49:30;8.05;;;6.72;;
42802;SDS011;28447;48.682;9.022;2023-06-01T11:52:07;6.65;;;5.57;;
42802;SDS011;28447;48.682;9.022;2023-06-01T11:54:33;7.70;;;6.05;;
42802;SDS011;28447;48.682;9.022;2023-06-01T11:56:59;7.20;;;5.80;;
42802;SDS011;28447;48.682;9.022;2023-06-01T11:59:28;6.22;;;5.60;;
42802;SDS011;28447;48.682;9.022;2023-06-01T12:02:02;9.07;;;5.63;;
42802;SDS011;28447;48.682;9.022;2023-06-01T12:04:28;8.68;;;6.05;;
42802;SDS011;28447;48.682;9.022;2023-06-01T12:07:03;7.55;;;6.05;;
42802;SDS011;28447;48.682;9.022;2023-06-01T12:09:30;6.45;;;5.75;;
42802;SDS011;28447;48.682;9.022;2023-06-01T12:11:56;6.25;;;5.65;;
42802;SDS011;28447;48.682;9.022;2023-06-01T12:14:23;7.28;;;5.63;;
42802;SDS011;28447;48.682;9.022;2023-06-01T12:16:55;6.65;;;5.95;;
42802;SDS011;28447;48.682;9.022;2023-06-01T12:19:26;7.60;;;6.20;;
42802;SDS011;28447;48.682;9.022;2023-06-01T12:21:55;7.20;;;5.97;;
42802;SDS011;28447;48.682;9.022;2023-06-01T12:24:28;6.28;;;5.68;;
42802;SDS011;28447;48.682;9.022;2023-06-01T12:26:58;7.82;;;6.35;;
42802;SDS011;28447;48.682;9.022;2023-06-01T12:32:01;7.45;;;6.10;;
42802;SDS011;28447;48.682;9.022;2023-06-01T12:34:28;7.40;;;5.72;;
42802;SDS011;28447;48.682;9.022;2023-06-01T12:36:54;6.80;;;6.10;;
42802;SDS011;28447;48.682;9.022;2023-06-01T12:39:31;6.78;;;6.13;;
42802;SDS011;28447;48.682;9.022;2023-06-01T12:42:01;6.97;;;5.85;;
42802;SDS011;28447;48.682;9.022;2023-06-01T12:44:27;6.40;;;5.80;;
42802;SDS011;28447;48.682;9.022;2023-06-01T12:46:56;6.50;;;5.90;;
42802;SDS011;28447;48.682;9.022;2023-06-01T12:49:23;9.73;;;6.28;;
42802;SDS011;28447;48.682;9.022;2023-06-01T12:51:49;6.63;;;5.93;;
42802;SDS011;28447;48.682;9.022;2023-06-01T12:54:15;7.25;;;6.55;;
42802;SDS011;28447;48.682;9.022;2023-06-01T12:56:40;6.88;;;6.18;;
42802;SDS011;28447;48.682;9.022;2023-06-01T12:59:06;7.60;;;5.50;;
42802;SDS011;28447;48.682;9.022;2023-06-01T13:01:32;6.28;;;5.10;;
42802;SDS011;28447;48.682;9.022;2023-06-01T13:03:58;6.68;;;5.43;;
42802;SDS011;28447;48.682;9.022;2023-06-01T13:06:23;7.53;;;6.15;;
42802;SDS011;28447;48.682;9.022;2023-06-01T13:08:49;6.90;;;6.30;;
42802;SDS011;28447;48.682;9.022;2023-06-01T13:11:15;6.65;;;5.82;;
42802;SDS011;28447;48.682;9.022;2023-06-01T13:13:41;11.43;;;6.15;;
42802;SDS011;28447;48.682;9.022;2023-06-01T13:16:07;6.95;;;5.53;;
42802;SDS011;28447;48.682;9.022;2023-06-01T13:18:33;6.25;;;5.60;;
42802;SDS011;28447;48.682;9.022;2023-06-01T13:20:59;6.90;;;6.10;;
42802;SDS011;28447;48.682;9.022;2023-06-01T13:23:24;7.25;;;6.03;;
42802;SDS011;28447;48.682;9.022;2023-06-01T13:25:50;7.60;;;6.80;;
42802;SDS011;28447;48.682;9.022;2023-06-01T13:28:16;7.88;;;6.97;;
42802;SDS011;28447;48.682;9.022;2023-06-01T13:30:41;10.65;;;6.10;;
42802;SDS011;28447;48.682;9.022;2023-06-01T13:33:08;7.90;;;6.28;;
42802;SDS011;28447;48.682;9.022;2023-06-01T13:35:34;7.00;;;5.90;;
42802;SDS011;28447;48.682;9.022;2023-06-01T13:38:00;8.93;;;6.30;;
42802;SDS011;28447;48.682;9.022;2023-06-01T13:40:26;8.27;;;6.63;;
42802;SDS011;28447;48.682;9.022;2023-06-01T13:42:52;7.47;;;6.13;;
42802;SDS011;28447;48.682;9.022;2023-06-01T13:45:18;7.10;;;6.40;;
42802;SDS011;28447;48.682;9.022;2023-06-01T13:47:44;11.93;;;6.25;;
42802;SDS011;28447;48.682;9.022;2023-06-01T13:50:10;8.82;;;7.03;;
42802;SDS011;28447;48.682;9.022;2023-06-01T13:52:39;6.13;;;5.53;;
42802;SDS011;28447;48.682;9.022;2023-06-01T13:55:06;7.05;;;6.35;;
42802;SDS011;28447;48.682;9.022;2023-06-01T13:57:33;7.03;;;5.97;;
42802;SDS011;28447;48.682;9.022;2023-06-01T14:00:00;7.22;;;5.85;;
42802;SDS011;28447;48.682;9.022;2023-06-01T14:02:26;8.93;;;5.97;;
42802;SDS011;28447;48.682;9.022;2023-06-01T14:04:51;6.70;;;6.00;;
42802;SDS011;28447;48.682;9.022;2023-06-01T14:07:17;6.95;;;6.25;;
42802;SDS011;28447;48.682;9.022;2023-06-01T14:09:43;6.90;;;6.30;;
42802;SDS011;28447;48.682;9.022;2023-06-01T14:12:09;6.40;;;5.80;;
42802;SDS011;28447;48.682;9.022;2023-06-01T14:14:36;6.90;;;6.10;;
42802;SDS011;28447;48.682;9.022;2023-06-01T14:17:02;6.70;;;5.90;;
42802;SDS011;28447;48.682;9.022;2023-06-01T14:19:28;7.65;;;6.40;;
42802;SDS011;28447;48.682;9.022;2023-06-01T14:21:53;9.18;;;6.63;;
42802;SDS011;28447;48.682;9.022;2023-06-01T14:24:19;6.75;;;5.88;;
42802;SDS011;28447;48.682;9.022;2023-06-01T14:26:45;9.95;;;6.55;;
42802;SDS011;28447;48.682;9.022;2023-06-01T14:29:11;6.47;;;5.82;;
42802;SDS011;28447;48.682;9.022;2023-06-01T14:31:37;9.35;;;6.00;;
42802;SDS011;28447;48.682;9.022;2023-06-01T14:34:02;6.47;;;5.22;;
42802;SDS011;28447;48.682;9.022;2023-06-01T14:36:28;7.00;;;5.90;;
42802;SDS011;28447;48.682;9.022;2023-06-01T14:38:54;10.85;;;6.07;;
42802;SDS011;28447;48.682;9.022;2023-06-01T14:41:19;6.65;;;5.95;;
42802;SDS011;28447;48.682;9.022;2023-06-01T14:43:45;6.25;;;5.65;;
42802;SDS011;28447;48.682;9.022;2023-06-01T14:46:11;7.90;;;5.80;;
42802;SDS011;28447;48.682;9.022;2023-06-01T14:48:36;7.43;;;5.85;;
42802;SDS011;28447;48.682;9.022;2023-06-01T14:51:02;7.95;;;5.45;;
42802;SDS011;28447;48.682;9.022;2023-06-01T14:53:29;7.13;;;6.43;;
42802;SDS011;28447;48.682;9.022;2023-06-01T14:55:55;11.90;;;6.30;;
42802;SDS011;28447;48.682;9.022;2023-06-01T14:58:20;6.10;;;5.60;;
42802;SDS011;28447;48.682;9.022;2023-06-01T15:00:46;9.35;;;5.40;;
42802;SDS011;28447;48.682;9.022;2023-06-01T15:03:13;8.05;;;5.50;;
42802;SDS011;28447;48.682;9.022;2023-06-01T15:05:38;6.72;;;5.25;;
42802;SDS011;28447;48.682;9.022;2023-06-01T15:08:05;6.72;;;5.38;;
42802;SDS011;28447;48.682;9.022;2023-06-01T15:10:31;6.10;;;5.50;;
42802;SDS011;28447;48.682;9.022;2023-06-01T15:12:57;7.65;;;5.40;;
42802;SDS011;28447;48.682;9.022;2023-06-01T15:15:22;5.88;;;5.28;;
42802;SDS011;28447;48.682;9.022;2023-06-01T15:17:48;6.15;;;5.10;;
42802;SDS011;28447;48.682;9.022;2023-06-01T15:20:14;5.65;;;5.15;;
42802;SDS011;28447;48.682;9.022;2023-06-01T15:22:40;6.28;;;5.30;;
42802;SDS011;28447;48.682;9.022;2023-06-01T15:25:05;5.30;;;4.80;;
42802;SDS011;28447;48.682;9.022;2023-06-01T15:27:32;5.95;;;5.20;;
42802;SDS011;28447;48.682;9.022;2023-06-01T15:29:57;6.68;;;4.95;;
42802;SDS011;28447;48.682;9.022;2023-06-01T15:32:23;6.10;;;4.97;;
42802;SDS011;28447;48.682;9.022;2023-06-01T15:34:48;5.68;;;5.18;;
42802;SDS011;28447;48.682;9.022;2023-06-01T15:37:14;5.90;;;5.38;;
42802;SDS011;28447;48.682;9.022;2023-06-01T15:39:40;6.63;;;4.50;;
42802;SDS011;28447;48.682;9.022;2023-06-01T15:42:06;7.25;;;4.40;;
42802;SDS011;28447;48.682;9.022;2023-06-01T15:44:33;5.18;;;4.43;;
42802;SDS011;28447;48.682;9.022;2023-06-01T15:47:07;7.10;;;4.55;;
42802;SDS011;28447;48.682;9.022;2023-06-01T15:49:33;5.00;;;4.50;;
42802;SDS011;28447;48.682;9.022;2023-06-01T15:51:59;4.97;;;4.53;;
42802;SDS011;28447;48.682;9.022;2023-06-01T15:54:28;5.53;;;3.90;;
42802;SDS011;28447;48.682;9.022;2023-06-01T15:56:57;5.25;;;3.75;;
42802;SDS011;28447;48.682;9.022;2023-06-01T15:59:23;5.15;;;3.97;;
42802;SDS011;28447;48.682;9.022;2023-06-01T16:01:49;5.85;;;4.25;;
42802;SDS011;28447;48.682;9.022;2023-06-01T16:04:15;4.72;;;3.80;;
42802;SDS011;28447;48.682;9.022;2023-06-01T16:06:41;12.07;;;4.22;;
42802;SDS011;28447;48.682;9.022;2023-06-01T16:09:07;6.53;;;3.90;;
42802;SDS011;28447;48.682;9.022;2023-06-01T16:11:33;4.10;;;3.70;;
42802;SDS011;28447;48.682;9.022;2023-06-01T16:13:59;4.93;;;3.70;;
42802;SDS011;28447;48.682;9.022;2023-06-01T16:16:25;7.22;;;3.50;;
42802;SDS011;28447;48.682;9.022;2023-06-01T16:18:50;3.75;;;3.45;;
42802;SDS011;28447;48.682;9.022;2023-06-01T16:21:16;4.18;;;3.78;;
42802;SDS011;28447;48.682;9.022;2023-06-01T16:23:42;3.75;;;3.45;;
42802;SDS011;28447;48.682;9.022;2023-06-01T16:26:07;7.63;;;3.97;;
42802;SDS011;28447;48.682;9.022;2023-06-01T16:28:34;5.78;;;3.83;;
42802;SDS011;28447;48.682;9.022;2023-06-01T16:31:00;6.68;;;4.40;;
42802;SDS011;28447;48.682;9.022;2023-06-01T16:33:26;4.55;;;3.97;;
42802;SDS011;28447;48.682;9.022;2023-06-01T16:35:52;3.92;;;3.40;;
42802;SDS011;28447;48.682;9.022;2023-06-01T16:38:18;5.15;;;4.03;;
42802;SDS011;28447;48.682;9.022;2023-06-01T16:40:43;7.03;;;4.05;;
42802;SDS011;28447;48.682;9.022;2023-06-01T16:43:09;4.43;;;3.63;;
42802;SDS011;28447;48.682;9.022;2023-06-01T16:45:37;4.50;;;4.03;;
42802;SDS011;28447;48.682;9.022;2023-06-01T16:48:04;4.78;;;3.70;;
42802;SDS011;28447;48.682;9.022;2023-06-01T16:50:31;4.85;;;3.40;;
42802;SDS011;28447;48.682;9.022;2023-06-01T16:52:58;3.70;;;3.40;;
42802;SDS011;28447;48.682;9.022;2023-06-01T16:55:23;4.35;;;3.50;;
42802;SDS011;28447;48.682;9.022;2023-06-01T16:57:51;5.38;;;3.92;;
42802;SDS011;28447;48.682;9.022;2023-06-01T17:00:17;4.38;;;3.55;;
42802;SDS011;28447;48.682;9.022;2023-06-01T17:02:43;4.85;;;3.83;;
42802;SDS011;28447;48.682;9.022;2023-06-01T17:05:09;4.20;;;3.33;;
42802;SDS011;28447;48.682;9.022;2023-06-01T17:07:34;4.95;;;3.78;;
42802;SDS011;28447;48.682;9.022;2023-06-01T17:10:00;4.85;;;3.72;;
42802;SDS011;28447;48.682;9.022;2023-06-01T17:12:26;3.92;;;3.53;;
42802;SDS011;28447;48.682;9.022;2023-06-01T17:14:52;6.28;;;3.70;;
42802;SDS011;28447;48.682;9.022;2023-06-01T17:17:17;4.82;;;4.00;;
42802;SDS011;28447;48.682;9.022;2023-06-01T17:19:44;4.70;;;3.60;;
42802;SDS011;28447;48.682;9.022;2023-06-01T17:22:10;5.90;;;3.50;;
42802;SDS011;28447;48.682;9.022;2023-06-01T17:24:36;3.83;;;3.42;;
42802;SDS011;28447;48.682;9.022;2023-06-01T17:27:02;5.00;;;3.38;;
42802;SDS011;28447;48.682;9.022;2023-06-01T17:29:27;3.88;;;3.50;;
42802;SDS011;28447;48.682;9.022;2023-06-01T17:31:53;4.03;;;3.45;;
42802;SDS011;28447;48.682;9.022;2023-06-01T17:34:19;5.40;;;3.70;;
42802;SDS011;28447;48.682;9.022;2023-06-01T17:36:44;3.80;;;3.50;;
42802;SDS011;28447;48.682;9.022;2023-06-01T17:39:10;5.32;;;3.47;;
42802;SDS011;28447;48.682;9.022;2023-06-01T17:41:36;3.83;;;3.13;;
42802;SDS011;28447;48.682;9.022;2023-06-01T17:44:07;3.67;;;3.28;;
42802;SDS011;28447;48.682;9.022;2023-06-01T17:46:36;8.98;;;3.65;;
42802;SDS011;28447;48.682;9.022;2023-06-01T17:49:02;6.75;;;3.10;;
42802;SDS011;28447;48.682;9.022;2023-06-01T17:51:27;4.03;;;3.00;;
42802;SDS011;28447;48.682;9.022;2023-06-01T17:53:53;3.50;;;3.17;;
42802;SDS011;28447;48.682;9.022;2023-06-01T17:56:18;4.18;;;3.50;;
42802;SDS011;28447;48.682;9.022;2023-06-01T17:58:44;4.10;;;3.63;;
42802;SDS011;28447;48.682;9.022;2023-06-01T18:01:10;3.63;;;3.33;;
42802;SDS011;28447;48.682;9.022;2023-06-01T18:03:35;4.57;;;3.38;;
42802;SDS011;28447;48.682;9.022;2023-06-01T18:06:01;5.13;;;3.22;;
42802;SDS011;28447;48.682;9.022;2023-06-01T18:08:27;4.70;;;3.00;;
42802;SDS011;28447;48.682;9.022;2023-06-01T18:10:53;4.15;;;3.28;;
42802;SDS011;28447;48.682;9.022;2023-06-01T18:13:18;5.10;;;3.60;;
42802;SDS011;28447;48.682;9.022;2023-06-01T18:15:44;5.78;;;3.35;;
42802;SDS011;28447;48.682;9.022;2023-06-01T18:18:10;3.83;;;3.35;;
42802;SDS011;28447;48.682;9.022;2023-06-01T18:20:35;4.25;;;3.70;;
42802;SDS011;28447;48.682;9.022;2023-06-01T18:23:01;3.70;;;3.30;;
42802;SDS011;28447;48.682;9.022;2023-06-01T18:25:27;4.32;;;3.25;;
42802;SDS011;28447;48.682;9.022;2023-06-01T18:27:52;3.92;;;3.60;;
42802;SDS011;28447;48.682;9.022;2023-06-01T18:30:18;5.03;;;3.78;;
42802;SDS011;28447;48.682;9.022;2023-06-01T18:32:43;5.18;;;3.13;;
42802;SDS011;28447;48.682;9.022;2023-06-01T18:35:09;5.43;;;3.47;;
42802;SDS011;28447;48.682;9.022;2023-06-01T18:37:35;10.02;;;3.70;;
42802;SDS011;28447;48.682;9.022;2023-06-01T18:40:01;5.50;;;3.57;;
42802;SDS011;28447;48.682;9.022;2023-06-01T18:42:28;4.07;;;3.67;;
42802;SDS011;28447;48.682;9.022;2023-06-01T18:44:53;5.13;;;3.00;;
42802;SDS011;28447;48.682;9.022;2023-06-01T18:47:19;7.23;;;4.03;;
42802;SDS011;28447;48.682;9.022;2023-06-01T18:49:45;3.40;;;3.07;;
42802;SDS011;28447;48.682;9.022;2023-06-01T18:52:12;4.40;;;3.50;;
42802;SDS011;28447;48.682;9.022;2023-06-01T18:54:38;4.07;;;3.67;;
42802;SDS011;28447;48.682;9.022;2023-06-01T18:57:03;7.53;;;3.70;;
42802;SDS011;28447;48.682;9.022;2023-06-01T18:59:30;9.70;;;3.57;;
42802;SDS011;28447;48.682;9.022;2023-06-01T19:01:55;3.80;;;3.17;;
42802;SDS011;28447;48.682;9.022;2023-06-01T19:04:21;5.30;;;3.63;;
42802;SDS011;28447;48.682;9.022;2023-06-01T19:06:48;4.73;;;3.40;;
42802;SDS011;28447;48.682;9.022;2023-06-01T19:09:15;4.77;;;3.50;;
42802;SDS011;28447;48.682;9.022;2023-06-01T19:11:42;4.70;;;3.73;;
42802;SDS011;28447;48.682;9.022;2023-06-01T19:14:17;6.70;;;3.73;;
42802;SDS011;28447;48.682;9.022;2023-06-01T19:16:43;5.70;;;3.90;;